sensor_id;sensor_type;location;lat;lon;timestamp;temperature;humidity
68215;DHT22;55036;52.138;5.236;2023-03-23T00:01:16;12.70;92.90
68215;DHT22;55036;52.138;5.236;2023-03-23T00:03:46;12.60;92.40
68215;DHT22;55036;52.138;5.236;2023-03-23T00:06:12;12.60;92.40
68215;DHT22;55036;52.138;5.236;2023-03-23T00:08:43;12.60;92.60
68215;DHT22;55036;52.138;5.236;2023-03-23T00:11:16;12.70;92.40
68215;DHT22;55036;52.138;5.236;2023-03-23T00:13:42;12.70;92.30
68215;DHT22;55036;52.138;5.236;2023-03-23T00:16:09;12.70;92.50
68215;DHT22;55036;52.138;5.236;2023-03-23T00:18:44;12.70;92.30
68215;DHT22;55036;52.138;5.236;2023-03-23T00:21:10;12.70;91.90
68215;DHT22;55036;52.138;5.236;2023-03-23T00:23:36;12.70;92.00
68215;DHT22;55036;52.138;5.236;2023-03-23T00:26:01;12.80;92.00
68215;DHT22;55036;52.138;5.236;2023-03-23T00:28:27;12.80;92.10
68215;DHT22;55036;52.138;5.236;2023-03-23T00:30:57;12.80;91.90
68215;DHT22;55036;52.138;5.236;2023-03-23T00:33:25;12.80;91.70
68215;DHT22;55036;52.138;5.236;2023-03-23T00:35:52;12.90;91.50
68215;DHT22;55036;52.138;5.236;2023-03-23T00:38:19;12.80;91.50
68215;DHT22;55036;52.138;5.236;2023-03-23T00:40:45;12.80;91.30
68215;DHT22;55036;52.138;5.236;2023-03-23T00:43:13;12.80;91.70
68215;DHT22;55036;52.138;5.236;2023-03-23T00:45:39;12.80;91.50
68215;DHT22;55036;52.138;5.236;2023-03-23T00:48:05;12.90;91.00
68215;DHT22;55036;52.138;5.236;2023-03-23T00:50:31;12.90;90.90
68215;DHT22;55036;52.138;5.236;2023-03-23T00:52:57;12.80;91.00
68215;DHT22;55036;52.138;5.236;2023-03-23T00:55:24;12.80;91.40
68215;DHT22;55036;52.138;5.236;2023-03-23T00:57:51;12.90;91.10
68215;DHT22;55036;52.138;5.236;2023-03-23T01:00:17;12.90;91.00
68215;DHT22;55036;52.138;5.236;2023-03-23T01:02:44;12.90;90.60
68215;DHT22;55036;52.138;5.236;2023-03-23T01:05:11;12.90;90.80
68215;DHT22;55036;52.138;5.236;2023-03-23T01:07:36;12.90;91.00
68215;DHT22;55036;52.138;5.236;2023-03-23T01:10:04;13.00;90.60
68215;DHT22;55036;52.138;5.236;2023-03-23T01:12:30;13.00;90.50
68215;DHT22;55036;52.138;5.236;2023-03-23T01:14:56;12.90;90.50
68215;DHT22;55036;52.138;5.236;2023-03-23T01:17:21;13.00;90.60
68215;DHT22;55036;52.138;5.236;2023-03-23T01:19:47;13.00;90.30
68215;DHT22;55036;52.138;5.236;2023-03-23T01:22:13;13.00;90.40
68215;DHT22;55036;52.138;5.236;2023-03-23T01:24:38;12.90;89.40
68215;DHT22;55036;52.138;5.236;2023-03-23T01:27:04;12.90;90.40
68215;DHT22;55036;52.138;5.236;2023-03-23T01:29:35;12.90;89.90
68215;DHT22;55036;52.138;5.236;2023-03-23T01:32:01;12.90;90.70
68215;DHT22;55036;52.138;5.236;2023-03-23T01:34:27;13.00;90.20
68215;DHT22;55036;52.138;5.236;2023-03-23T01:36:53;13.00;89.50
68215;DHT22;55036;52.138;5.236;2023-03-23T01:39:18;13.00;90.20
68215;DHT22;55036;52.138;5.236;2023-03-23T01:41:44;13.00;89.60
68215;DHT22;55036;52.138;5.236;2023-03-23T01:46:43;13.00;89.10
68215;DHT22;55036;52.138;5.236;2023-03-23T01:51:43;13.00;89.30
68215;DHT22;55036;52.138;5.236;2023-03-23T01:54:13;13.00;89.10
68215;DHT22;55036;52.138;5.236;2023-03-23T01:56:43;13.00;89.30
68215;DHT22;55036;52.138;5.236;2023-03-23T01:59:11;13.00;88.70
68215;DHT22;55036;52.138;5.236;2023-03-23T02:01:39;12.90;89.40
68215;DHT22;55036;52.138;5.236;2023-03-23T02:04:10;13.00;89.80
68215;DHT22;55036;52.138;5.236;2023-03-23T02:06:37;12.90;88.80
68215;DHT22;55036;52.138;5.236;2023-03-23T02:09:03;13.00;89.10
68215;DHT22;55036;52.138;5.236;2023-03-23T02:11:31;12.90;88.80
68215;DHT22;55036;52.138;5.236;2023-03-23T02:13:57;12.90;88.90
68215;DHT22;55036;52.138;5.236;2023-03-23T02:16:46;13.00;88.70
68215;DHT22;55036;52.138;5.236;2023-03-23T02:22:53;13.00;88.30
68215;DHT22;55036;52.138;5.236;2023-03-23T02:36:45;13.00;88.60
68215;DHT22;55036;52.138;5.236;2023-03-23T02:39:20;13.00;88.60
68215;DHT22;55036;52.138;5.236;2023-03-23T02:41:54;13.00;88.40
68215;DHT22;55036;52.138;5.236;2023-03-23T02:44:23;13.00;88.00
68215;DHT22;55036;52.138;5.236;2023-03-23T02:46:51;13.00;88.10
68215;DHT22;55036;52.138;5.236;2023-03-23T02:49:19;13.00;87.70
68215;DHT22;55036;52.138;5.236;2023-03-23T02:51:46;13.00;88.00
68215;DHT22;55036;52.138;5.236;2023-03-23T02:54:15;13.00;87.90
68215;DHT22;55036;52.138;5.236;2023-03-23T02:56:42;13.10;87.70
68215;DHT22;55036;52.138;5.236;2023-03-23T02:59:08;13.10;87.40
68215;DHT22;55036;52.138;5.236;2023-03-23T03:04:07;13.10;87.20
68215;DHT22;55036;52.138;5.236;2023-03-23T03:15:31;13.20;86.20
68215;DHT22;55036;52.138;5.236;2023-03-23T03:18:03;13.20;86.70
68215;DHT22;55036;52.138;5.236;2023-03-23T03:20:32;13.10;86.30
68215;DHT22;55036;52.138;5.236;2023-03-23T03:23:00;13.10;86.30
68215;DHT22;55036;52.138;5.236;2023-03-23T03:25:26;13.10;86.20
68215;DHT22;55036;52.138;5.236;2023-03-23T03:27:53;13.10;86.40
68215;DHT22;55036;52.138;5.236;2023-03-23T03:30:25;13.20;86.00
68215;DHT22;55036;52.138;5.236;2023-03-23T03:32:53;13.20;86.20
68215;DHT22;55036;52.138;5.236;2023-03-23T03:35:23;13.20;85.60
68215;DHT22;55036;52.138;5.236;2023-03-23T03:37:50;13.20;85.30
68215;DHT22;55036;52.138;5.236;2023-03-23T03:40:18;13.20;85.70
68215;DHT22;55036;52.138;5.236;2023-03-23T03:42:45;13.20;85.70
68215;DHT22;55036;52.138;5.236;2023-03-23T03:45:16;13.20;85.60
68215;DHT22;55036;52.138;5.236;2023-03-23T03:47:42;13.20;85.40
68215;DHT22;55036;52.138;5.236;2023-03-23T03:50:08;13.10;86.90
68215;DHT22;55036;52.138;5.236;2023-03-23T03:52:35;13.20;85.50
68215;DHT22;55036;52.138;5.236;2023-03-23T03:55:00;13.20;85.90
68215;DHT22;55036;52.138;5.236;2023-03-23T03:57:26;13.20;85.90
68215;DHT22;55036;52.138;5.236;2023-03-23T03:59:52;13.20;85.70
68215;DHT22;55036;52.138;5.236;2023-03-23T04:02:18;13.20;85.30
68215;DHT22;55036;52.138;5.236;2023-03-23T04:04:49;13.20;85.40
68215;DHT22;55036;52.138;5.236;2023-03-23T04:07:15;13.20;85.30
68215;DHT22;55036;52.138;5.236;2023-03-23T04:09:43;13.20;85.40
68215;DHT22;55036;52.138;5.236;2023-03-23T04:12:11;13.20;85.00
68215;DHT22;55036;52.138;5.236;2023-03-23T04:14:36;13.20;85.60
68215;DHT22;55036;52.138;5.236;2023-03-23T04:17:02;13.30;84.30
68215;DHT22;55036;52.138;5.236;2023-03-23T04:19:28;13.20;84.40
68215;DHT22;55036;52.138;5.236;2023-03-23T04:21:54;13.20;85.00
68215;DHT22;55036;52.138;5.236;2023-03-23T04:24:21;13.20;85.20
68215;DHT22;55036;52.138;5.236;2023-03-23T04:26:48;13.30;83.60
68215;DHT22;55036;52.138;5.236;2023-03-23T04:29:13;13.30;84.20
68215;DHT22;55036;52.138;5.236;2023-03-23T04:31:41;13.20;83.80
68215;DHT22;55036;52.138;5.236;2023-03-23T04:34:11;13.20;83.50
68215;DHT22;55036;52.138;5.236;2023-03-23T04:36:39;13.10;83.80
68215;DHT22;55036;52.138;5.236;2023-03-23T04:39:06;13.10;83.80
68215;DHT22;55036;52.138;5.236;2023-03-23T04:41:36;13.10;84.10
68215;DHT22;55036;52.138;5.236;2023-03-23T04:44:02;13.20;83.40
68215;DHT22;55036;52.138;5.236;2023-03-23T04:46:28;13.10;83.80
68215;DHT22;55036;52.138;5.236;2023-03-23T04:48:57;13.20;83.10
68215;DHT22;55036;52.138;5.236;2023-03-23T04:51:28;13.10;82.80
68215;DHT22;55036;52.138;5.236;2023-03-23T04:53:55;13.20;83.00
68215;DHT22;55036;52.138;5.236;2023-03-23T04:56:22;13.20;82.50
68215;DHT22;55036;52.138;5.236;2023-03-23T04:58:47;13.20;83.20
68215;DHT22;55036;52.138;5.236;2023-03-23T05:01:13;13.30;82.20
68215;DHT22;55036;52.138;5.236;2023-03-23T05:03:42;13.20;82.80
68215;DHT22;55036;52.138;5.236;2023-03-23T05:06:09;13.10;84.70
68215;DHT22;55036;52.138;5.236;2023-03-23T05:08:35;13.10;85.90
68215;DHT22;55036;52.138;5.236;2023-03-23T05:11:05;13.10;84.80
68215;DHT22;55036;52.138;5.236;2023-03-23T05:13:32;13.10;85.00
68215;DHT22;55036;52.138;5.236;2023-03-23T05:16:02;13.00;86.00
68215;DHT22;55036;52.138;5.236;2023-03-23T05:18:28;12.90;88.30
68215;DHT22;55036;52.138;5.236;2023-03-23T05:20:54;12.80;87.60
68215;DHT22;55036;52.138;5.236;2023-03-23T05:23:20;12.80;89.50
68215;DHT22;55036;52.138;5.236;2023-03-23T05:25:54;12.60;90.30
68215;DHT22;55036;52.138;5.236;2023-03-23T05:28:20;12.50;91.60
68215;DHT22;55036;52.138;5.236;2023-03-23T05:30:48;12.40;92.70
68215;DHT22;55036;52.138;5.236;2023-03-23T05:33:13;12.10;92.00
68215;DHT22;55036;52.138;5.236;2023-03-23T05:35:39;12.10;91.80
68215;DHT22;55036;52.138;5.236;2023-03-23T05:38:05;12.20;91.40
68215;DHT22;55036;52.138;5.236;2023-03-23T05:40:30;12.20;91.20
68215;DHT22;55036;52.138;5.236;2023-03-23T05:42:56;12.20;92.90
68215;DHT22;55036;52.138;5.236;2023-03-23T05:45:25;12.00;93.80
68215;DHT22;55036;52.138;5.236;2023-03-23T05:47:51;12.00;94.00
68215;DHT22;55036;52.138;5.236;2023-03-23T05:50:17;12.10;93.70
68215;DHT22;55036;52.138;5.236;2023-03-23T05:52:44;12.00;93.90
68215;DHT22;55036;52.138;5.236;2023-03-23T05:55:10;12.00;94.10
68215;DHT22;55036;52.138;5.236;2023-03-23T05:57:36;12.00;93.90
68215;DHT22;55036;52.138;5.236;2023-03-23T06:00:03;12.00;94.20
68215;DHT22;55036;52.138;5.236;2023-03-23T06:02:46;12.10;93.30
68215;DHT22;55036;52.138;5.236;2023-03-23T06:05:13;12.10;93.60
68215;DHT22;55036;52.138;5.236;2023-03-23T06:07:39;12.10;94.10
68215;DHT22;55036;52.138;5.236;2023-03-23T06:10:05;12.00;94.20
68215;DHT22;55036;52.138;5.236;2023-03-23T06:12:32;11.90;94.90
68215;DHT22;55036;52.138;5.236;2023-03-23T06:14:58;11.80;94.90
68215;DHT22;55036;52.138;5.236;2023-03-23T06:17:24;11.90;93.70
68215;DHT22;55036;52.138;5.236;2023-03-23T06:19:50;11.80;94.30
68215;DHT22;55036;52.138;5.236;2023-03-23T06:22:17;11.80;94.30
68215;DHT22;55036;52.138;5.236;2023-03-23T06:24:43;11.80;94.20
68215;DHT22;55036;52.138;5.236;2023-03-23T06:27:09;11.80;94.40
68215;DHT22;55036;52.138;5.236;2023-03-23T06:29:35;11.80;94.40
68215;DHT22;55036;52.138;5.236;2023-03-23T06:32:03;11.80;94.60
68215;DHT22;55036;52.138;5.236;2023-03-23T06:34:29;11.90;94.60
68215;DHT22;55036;52.138;5.236;2023-03-23T06:36:55;11.90;94.50
68215;DHT22;55036;52.138;5.236;2023-03-23T06:39:21;12.00;94.40
68215;DHT22;55036;52.138;5.236;2023-03-23T06:41:48;12.10;94.10
68215;DHT22;55036;52.138;5.236;2023-03-23T06:44:13;12.10;94.30
68215;DHT22;55036;52.138;5.236;2023-03-23T06:46:40;12.00;94.70
68215;DHT22;55036;52.138;5.236;2023-03-23T06:49:07;11.90;95.20
68215;DHT22;55036;52.138;5.236;2023-03-23T06:51:32;12.00;95.10
68215;DHT22;55036;52.138;5.236;2023-03-23T06:53:58;12.00;95.10
68215;DHT22;55036;52.138;5.236;2023-03-23T06:56:24;12.00;95.10
68215;DHT22;55036;52.138;5.236;2023-03-23T06:58:50;12.00;94.90
68215;DHT22;55036;52.138;5.236;2023-03-23T07:01:16;12.10;94.90
68215;DHT22;55036;52.138;5.236;2023-03-23T07:03:42;12.10;95.10
68215;DHT22;55036;52.138;5.236;2023-03-23T07:06:09;12.10;94.80
68215;DHT22;55036;52.138;5.236;2023-03-23T07:08:35;12.00;95.10
68215;DHT22;55036;52.138;5.236;2023-03-23T07:11:01;12.00;95.10
68215;DHT22;55036;52.138;5.236;2023-03-23T07:13:27;12.10;95.20
68215;DHT22;55036;52.138;5.236;2023-03-23T07:15:53;12.10;95.30
68215;DHT22;55036;52.138;5.236;2023-03-23T07:18:19;12.10;94.70
68215;DHT22;55036;52.138;5.236;2023-03-23T07:20:52;12.00;95.00
68215;DHT22;55036;52.138;5.236;2023-03-23T07:23:18;12.00;95.00
68215;DHT22;55036;52.138;5.236;2023-03-23T07:25:44;12.10;95.10
68215;DHT22;55036;52.138;5.236;2023-03-23T07:28:11;12.10;95.10
68215;DHT22;55036;52.138;5.236;2023-03-23T07:30:37;12.20;95.50
68215;DHT22;55036;52.138;5.236;2023-03-23T07:33:07;12.30;95.30
68215;DHT22;55036;52.138;5.236;2023-03-23T07:35:33;12.30;95.60
68215;DHT22;55036;52.138;5.236;2023-03-23T07:37:59;12.40;94.80
68215;DHT22;55036;52.138;5.236;2023-03-23T07:40:25;12.40;94.90
68215;DHT22;55036;52.138;5.236;2023-03-23T07:42:56;12.40;94.30
68215;DHT22;55036;52.138;5.236;2023-03-23T07:45:23;12.40;94.30
68215;DHT22;55036;52.138;5.236;2023-03-23T07:47:49;12.40;94.20
68215;DHT22;55036;52.138;5.236;2023-03-23T07:50:15;12.30;94.40
68215;DHT22;55036;52.138;5.236;2023-03-23T07:52:41;12.30;94.10
68215;DHT22;55036;52.138;5.236;2023-03-23T07:55:10;12.30;94.80
68215;DHT22;55036;52.138;5.236;2023-03-23T07:57:43;12.40;94.40
68215;DHT22;55036;52.138;5.236;2023-03-23T08:00:09;12.40;94.40
68215;DHT22;55036;52.138;5.236;2023-03-23T08:02:37;12.40;94.50
68215;DHT22;55036;52.138;5.236;2023-03-23T08:05:04;12.50;94.50
68215;DHT22;55036;52.138;5.236;2023-03-23T08:07:30;12.50;93.50
68215;DHT22;55036;52.138;5.236;2023-03-23T08:09:56;12.70;94.20
68215;DHT22;55036;52.138;5.236;2023-03-23T08:12:21;12.70;93.70
68215;DHT22;55036;52.138;5.236;2023-03-23T08:14:47;12.80;93.20
68215;DHT22;55036;52.138;5.236;2023-03-23T08:17:13;12.70;93.10
68215;DHT22;55036;52.138;5.236;2023-03-23T08:19:40;12.60;93.40
68215;DHT22;55036;52.138;5.236;2023-03-23T08:22:06;12.70;93.00
68215;DHT22;55036;52.138;5.236;2023-03-23T08:24:32;12.80;93.40
68215;DHT22;55036;52.138;5.236;2023-03-23T08:27:01;12.90;93.30
68215;DHT22;55036;52.138;5.236;2023-03-23T08:29:27;13.00;92.80
68215;DHT22;55036;52.138;5.236;2023-03-23T08:31:53;13.00;92.10
68215;DHT22;55036;52.138;5.236;2023-03-23T08:34:19;12.90;91.80
68215;DHT22;55036;52.138;5.236;2023-03-23T08:36:45;12.90;92.50
68215;DHT22;55036;52.138;5.236;2023-03-23T08:39:12;13.00;92.80
68215;DHT22;55036;52.138;5.236;2023-03-23T08:41:40;13.10;92.20
68215;DHT22;55036;52.138;5.236;2023-03-23T08:44:06;13.10;92.10
68215;DHT22;55036;52.138;5.236;2023-03-23T08:46:33;13.20;91.70
68215;DHT22;55036;52.138;5.236;2023-03-23T08:48:59;13.20;91.30
68215;DHT22;55036;52.138;5.236;2023-03-23T08:51:24;13.20;92.00
68215;DHT22;55036;52.138;5.236;2023-03-23T08:53:51;13.30;91.50
68215;DHT22;55036;52.138;5.236;2023-03-23T08:56:17;13.20;91.30
68215;DHT22;55036;52.138;5.236;2023-03-23T08:58:43;13.40;91.20
68215;DHT22;55036;52.138;5.236;2023-03-23T09:01:09;13.60;91.90
68215;DHT22;55036;52.138;5.236;2023-03-23T09:03:36;13.80;90.40
68215;DHT22;55036;52.138;5.236;2023-03-23T09:06:04;13.70;90.60
68215;DHT22;55036;52.138;5.236;2023-03-23T09:08:31;13.80;91.10
68215;DHT22;55036;52.138;5.236;2023-03-23T09:11:05;14.10;90.10
68215;DHT22;55036;52.138;5.236;2023-03-23T09:13:31;14.10;88.00
68215;DHT22;55036;52.138;5.236;2023-03-23T09:15:56;14.10;89.20
68215;DHT22;55036;52.138;5.236;2023-03-23T09:18:23;14.20;89.70
68215;DHT22;55036;52.138;5.236;2023-03-23T09:20:53;14.30;87.70
68215;DHT22;55036;52.138;5.236;2023-03-23T09:23:19;14.30;85.70
68215;DHT22;55036;52.138;5.236;2023-03-23T09:25:46;14.40;89.10
68215;DHT22;55036;52.138;5.236;2023-03-23T09:28:12;14.80;84.90
68215;DHT22;55036;52.138;5.236;2023-03-23T09:30:39;15.00;86.40
68215;DHT22;55036;52.138;5.236;2023-03-23T09:33:06;15.10;81.30
68215;DHT22;55036;52.138;5.236;2023-03-23T09:35:34;15.20;82.40
68215;DHT22;55036;52.138;5.236;2023-03-23T09:38:01;15.10;78.40
68215;DHT22;55036;52.138;5.236;2023-03-23T09:40:38;15.10;82.60
68215;DHT22;55036;52.138;5.236;2023-03-23T09:46:19;15.40;81.30
68215;DHT22;55036;52.138;5.236;2023-03-23T09:48:50;15.40;79.70
68215;DHT22;55036;52.138;5.236;2023-03-23T09:53:57;15.60;81.10
68215;DHT22;55036;52.138;5.236;2023-03-23T09:56:25;15.90;77.70
68215;DHT22;55036;52.138;5.236;2023-03-23T09:59:04;15.90;77.10
68215;DHT22;55036;52.138;5.236;2023-03-23T10:01:38;15.90;78.60
68215;DHT22;55036;52.138;5.236;2023-03-23T10:04:36;15.70;73.10
68215;DHT22;55036;52.138;5.236;2023-03-23T10:07:11;15.30;76.00
68215;DHT22;55036;52.138;5.236;2023-03-23T10:09:40;15.20;75.60
68215;DHT22;55036;52.138;5.236;2023-03-23T10:15:23;15.80;75.70
68215;DHT22;55036;52.138;5.236;2023-03-23T10:18:03;16.10;73.80
68215;DHT22;55036;52.138;5.236;2023-03-23T10:29:16;16.50;72.40
68215;DHT22;55036;52.138;5.236;2023-03-23T10:31:56;16.70;74.10
68215;DHT22;55036;52.138;5.236;2023-03-23T10:34:35;16.90;73.00
68215;DHT22;55036;52.138;5.236;2023-03-23T10:37:28;17.00;68.70
68215;DHT22;55036;52.138;5.236;2023-03-23T10:39:57;16.80;67.50
68215;DHT22;55036;52.138;5.236;2023-03-23T10:42:33;16.80;67.60
68215;DHT22;55036;52.138;5.236;2023-03-23T10:45:12;16.60;67.90
68215;DHT22;55036;52.138;5.236;2023-03-23T10:47:44;16.40;67.50
68215;DHT22;55036;52.138;5.236;2023-03-23T10:50:14;16.30;67.70
68215;DHT22;55036;52.138;5.236;2023-03-23T10:52:44;16.10;68.50
68215;DHT22;55036;52.138;5.236;2023-03-23T10:55:16;16.30;69.40
68215;DHT22;55036;52.138;5.236;2023-03-23T10:57:43;16.30;68.30
68215;DHT22;55036;52.138;5.236;2023-03-23T11:00:20;16.20;67.60
68215;DHT22;55036;52.138;5.236;2023-03-23T11:03:06;16.20;69.40
68215;DHT22;55036;52.138;5.236;2023-03-23T11:05:41;16.50;69.20
68215;DHT22;55036;52.138;5.236;2023-03-23T11:08:15;16.50;67.00
68215;DHT22;55036;52.138;5.236;2023-03-23T11:13:16;16.60;67.00
68215;DHT22;55036;52.138;5.236;2023-03-23T11:15:44;16.80;67.30
68215;DHT22;55036;52.138;5.236;2023-03-23T11:18:20;16.80;66.40
68215;DHT22;55036;52.138;5.236;2023-03-23T11:20:51;16.50;62.10
68215;DHT22;55036;52.138;5.236;2023-03-23T11:23:22;16.10;65.00
68215;DHT22;55036;52.138;5.236;2023-03-23T11:25:55;15.90;65.40
68215;DHT22;55036;52.138;5.236;2023-03-23T11:28:26;16.00;66.40
68215;DHT22;55036;52.138;5.236;2023-03-23T11:30:54;16.30;66.70
68215;DHT22;55036;52.138;5.236;2023-03-23T11:33:20;16.80;66.20
68215;DHT22;55036;52.138;5.236;2023-03-23T11:35:46;17.10;64.80
68215;DHT22;55036;52.138;5.236;2023-03-23T11:38:20;17.30;64.80
68215;DHT22;55036;52.138;5.236;2023-03-23T11:40:51;17.60;65.70
68215;DHT22;55036;52.138;5.236;2023-03-23T11:43:23;17.80;64.30
68215;DHT22;55036;52.138;5.236;2023-03-23T11:45:58;17.50;61.10
68215;DHT22;55036;52.138;5.236;2023-03-23T11:51:37;16.90;63.00
68215;DHT22;55036;52.138;5.236;2023-03-23T11:54:33;16.90;62.90
68215;DHT22;55036;52.138;5.236;2023-03-23T11:56:59;16.50;63.30
68215;DHT22;55036;52.138;5.236;2023-03-23T11:59:33;16.10;66.50
68215;DHT22;55036;52.138;5.236;2023-03-23T12:05:29;15.80;70.50
68215;DHT22;55036;52.138;5.236;2023-03-23T12:08:11;15.70;72.30
68215;DHT22;55036;52.138;5.236;2023-03-23T12:16:41;15.40;71.70
68215;DHT22;55036;52.138;5.236;2023-03-23T12:19:23;15.20;71.80
68215;DHT22;55036;52.138;5.236;2023-03-23T12:24:59;16.00;72.60
68215;DHT22;55036;52.138;5.236;2023-03-23T12:27:52;16.30;70.90
68215;DHT22;55036;52.138;5.236;2023-03-23T12:33:25;16.10;68.60
68215;DHT22;55036;52.138;5.236;2023-03-23T12:36:14;15.90;69.10
68215;DHT22;55036;52.138;5.236;2023-03-23T12:41:22;15.90;68.30
68215;DHT22;55036;52.138;5.236;2023-03-23T12:44:03;15.80;68.40
68215;DHT22;55036;52.138;5.236;2023-03-23T12:49:24;15.90;69.10
68215;DHT22;55036;52.138;5.236;2023-03-23T12:52:34;15.90;69.30
68215;DHT22;55036;52.138;5.236;2023-03-23T13:00:17;15.80;68.30
68215;DHT22;55036;52.138;5.236;2023-03-23T13:03:05;15.80;68.20
68215;DHT22;55036;52.138;5.236;2023-03-23T13:05:57;15.70;69.60
68215;DHT22;55036;52.138;5.236;2023-03-23T13:08:35;15.80;69.10
68215;DHT22;55036;52.138;5.236;2023-03-23T13:11:05;15.60;70.00
68215;DHT22;55036;52.138;5.236;2023-03-23T13:14:03;15.60;69.80
68215;DHT22;55036;52.138;5.236;2023-03-23T13:21:42;16.10;68.10
68215;DHT22;55036;52.138;5.236;2023-03-23T13:24:14;16.10;67.40
68215;DHT22;55036;52.138;5.236;2023-03-23T13:26:42;16.10;68.10
68215;DHT22;55036;52.138;5.236;2023-03-23T13:29:21;16.30;66.70
68215;DHT22;55036;52.138;5.236;2023-03-23T13:31:52;16.40;67.70
68215;DHT22;55036;52.138;5.236;2023-03-23T13:34:21;16.50;68.00
68215;DHT22;55036;52.138;5.236;2023-03-23T13:37:03;16.70;66.00
68215;DHT22;55036;52.138;5.236;2023-03-23T13:39:35;16.80;65.90
68215;DHT22;55036;52.138;5.236;2023-03-23T14:03:18;16.30;65.00
68215;DHT22;55036;52.138;5.236;2023-03-23T14:06:12;16.30;65.50
68215;DHT22;55036;52.138;5.236;2023-03-23T14:08:41;16.30;64.90
68215;DHT22;55036;52.138;5.236;2023-03-23T14:14:00;16.10;67.50
68215;DHT22;55036;52.138;5.236;2023-03-23T14:16:49;15.90;70.60
68215;DHT22;55036;52.138;5.236;2023-03-23T14:19:25;15.50;73.90
68215;DHT22;55036;52.138;5.236;2023-03-23T14:21:56;15.60;74.00
68215;DHT22;55036;52.138;5.236;2023-03-23T14:24:25;15.60;74.30
68215;DHT22;55036;52.138;5.236;2023-03-23T14:27:08;15.60;75.90
68215;DHT22;55036;52.138;5.236;2023-03-23T14:29:34;15.60;77.50
68215;DHT22;55036;52.138;5.236;2023-03-23T14:32:00;15.60;76.10
68215;DHT22;55036;52.138;5.236;2023-03-23T14:34:29;15.70;76.80
68215;DHT22;55036;52.138;5.236;2023-03-23T14:36:55;15.60;76.90
68215;DHT22;55036;52.138;5.236;2023-03-23T14:39:31;15.70;76.80
68215;DHT22;55036;52.138;5.236;2023-03-23T14:42:04;15.90;77.80
68215;DHT22;55036;52.138;5.236;2023-03-23T14:44:33;16.10;77.50
68215;DHT22;55036;52.138;5.236;2023-03-23T14:47:02;16.10;77.70
68215;DHT22;55036;52.138;5.236;2023-03-23T14:49:38;16.10;77.10
68215;DHT22;55036;52.138;5.236;2023-03-23T14:52:15;16.20;77.10
68215;DHT22;55036;52.138;5.236;2023-03-23T14:54:43;16.30;76.70
68215;DHT22;55036;52.138;5.236;2023-03-23T14:57:13;16.30;76.00
68215;DHT22;55036;52.138;5.236;2023-03-23T14:59:44;16.30;76.30
68215;DHT22;55036;52.138;5.236;2023-03-23T15:02:27;16.10;76.50
68215;DHT22;55036;52.138;5.236;2023-03-23T15:05:01;16.20;75.50
68215;DHT22;55036;52.138;5.236;2023-03-23T15:07:35;16.10;75.10
68215;DHT22;55036;52.138;5.236;2023-03-23T15:10:04;16.20;74.30
68215;DHT22;55036;52.138;5.236;2023-03-23T15:12:30;16.20;72.80
68215;DHT22;55036;52.138;5.236;2023-03-23T15:15:01;16.10;73.80
68215;DHT22;55036;52.138;5.236;2023-03-23T15:17:35;16.10;74.40
68215;DHT22;55036;52.138;5.236;2023-03-23T15:20:25;16.10;72.90
68215;DHT22;55036;52.138;5.236;2023-03-23T15:22:51;16.10;71.10
68215;DHT22;55036;52.138;5.236;2023-03-23T15:25:29;16.10;70.30
68215;DHT22;55036;52.138;5.236;2023-03-23T15:27:58;16.10;70.60
68215;DHT22;55036;52.138;5.236;2023-03-23T15:32:51;15.90;69.70
68215;DHT22;55036;52.138;5.236;2023-03-23T15:35:23;16.00;68.20
68215;DHT22;55036;52.138;5.236;2023-03-23T15:40:19;15.90;67.60
68215;DHT22;55036;52.138;5.236;2023-03-23T15:42:46;15.80;68.10
68215;DHT22;55036;52.138;5.236;2023-03-23T15:47:43;15.80;69.00
68215;DHT22;55036;52.138;5.236;2023-03-23T15:52:35;15.90;68.90
68215;DHT22;55036;52.138;5.236;2023-03-23T15:55:01;16.00;68.70
68215;DHT22;55036;52.138;5.236;2023-03-23T15:57:27;15.90;68.90
68215;DHT22;55036;52.138;5.236;2023-03-23T15:59:52;16.00;69.00
68215;DHT22;55036;52.138;5.236;2023-03-23T16:02:22;16.00;68.50
68215;DHT22;55036;52.138;5.236;2023-03-23T16:04:49;16.00;70.00
68215;DHT22;55036;52.138;5.236;2023-03-23T16:07:20;16.10;68.60
68215;DHT22;55036;52.138;5.236;2023-03-23T16:09:48;16.10;68.80
68215;DHT22;55036;52.138;5.236;2023-03-23T16:12:15;16.10;68.90
68215;DHT22;55036;52.138;5.236;2023-03-23T16:14:43;16.10;68.70
68215;DHT22;55036;52.138;5.236;2023-03-23T16:17:18;16.10;68.30
68215;DHT22;55036;52.138;5.236;2023-03-23T16:19:45;16.10;67.90
68215;DHT22;55036;52.138;5.236;2023-03-23T16:22:11;16.00;68.60
68215;DHT22;55036;52.138;5.236;2023-03-23T16:24:38;16.00;68.50
68215;DHT22;55036;52.138;5.236;2023-03-23T16:27:05;16.00;68.50
68215;DHT22;55036;52.138;5.236;2023-03-23T16:29:31;15.90;68.60
68215;DHT22;55036;52.138;5.236;2023-03-23T16:32:18;16.00;67.80
68215;DHT22;55036;52.138;5.236;2023-03-23T16:34:45;15.90;68.60
68215;DHT22;55036;52.138;5.236;2023-03-23T16:37:11;15.90;68.80
68215;DHT22;55036;52.138;5.236;2023-03-23T16:39:38;15.90;68.90
68215;DHT22;55036;52.138;5.236;2023-03-23T16:42:05;15.90;69.00
68215;DHT22;55036;52.138;5.236;2023-03-23T16:44:32;15.80;69.40
68215;DHT22;55036;52.138;5.236;2023-03-23T16:46:58;15.90;69.30
68215;DHT22;55036;52.138;5.236;2023-03-23T16:49:25;15.90;69.50
68215;DHT22;55036;52.138;5.236;2023-03-23T16:51:52;15.90;69.20
68215;DHT22;55036;52.138;5.236;2023-03-23T16:54:19;15.90;69.50
68215;DHT22;55036;52.138;5.236;2023-03-23T16:56:45;15.90;70.50
68215;DHT22;55036;52.138;5.236;2023-03-23T16:59:14;15.90;69.70
68215;DHT22;55036;52.138;5.236;2023-03-23T17:01:41;15.90;69.60
68215;DHT22;55036;52.138;5.236;2023-03-23T17:04:08;15.90;70.10
68215;DHT22;55036;52.138;5.236;2023-03-23T17:06:35;15.90;69.90
68215;DHT22;55036;52.138;5.236;2023-03-23T17:09:02;15.80;70.00
68215;DHT22;55036;52.138;5.236;2023-03-23T17:11:29;15.80;70.00
68215;DHT22;55036;52.138;5.236;2023-03-23T17:13:56;15.80;69.90
68215;DHT22;55036;52.138;5.236;2023-03-23T17:16:22;15.70;70.10
68215;DHT22;55036;52.138;5.236;2023-03-23T17:18:49;15.70;70.10
68215;DHT22;55036;52.138;5.236;2023-03-23T17:21:16;15.70;69.40
68215;DHT22;55036;52.138;5.236;2023-03-23T17:23:42;15.70;69.70
68215;DHT22;55036;52.138;5.236;2023-03-23T17:26:09;15.60;69.00
68215;DHT22;55036;52.138;5.236;2023-03-23T17:28:35;15.60;69.50
68215;DHT22;55036;52.138;5.236;2023-03-23T17:31:02;15.70;69.10
68215;DHT22;55036;52.138;5.236;2023-03-23T17:33:31;15.60;69.20
68215;DHT22;55036;52.138;5.236;2023-03-23T17:35:58;15.60;69.50
68215;DHT22;55036;52.138;5.236;2023-03-23T17:38:25;15.60;69.50
68215;DHT22;55036;52.138;5.236;2023-03-23T17:40:59;15.70;69.50
68215;DHT22;55036;52.138;5.236;2023-03-23T17:43:28;15.60;69.50